createdAt,value
2024-05-09T00:00:30.600Z,13.52
2024-05-09T00:03:02.834Z,10.02
2024-05-09T00:05:29.703Z,8.00
2024-05-09T00:07:56.531Z,10.45
2024-05-09T00:10:32.604Z,7.65
2024-05-09T00:13:02.509Z,5.70
2024-05-09T00:15:29.256Z,6.32
2024-05-09T00:17:56.212Z,14.32
2024-05-09T00:20:28.556Z,7.45
2024-05-09T00:23:02.999Z,11.07
2024-05-09T00:25:29.729Z,7.15
2024-05-09T00:27:56.331Z,6.10
2024-05-09T00:30:31.614Z,16.05
2024-05-09T00:33:02.147Z,5.53
2024-05-09T00:35:29.063Z,7.85
2024-05-09T00:37:55.938Z,9.05
2024-05-09T00:40:30.961Z,11.13
2024-05-09T00:43:05.060Z,4.85
2024-05-09T00:45:31.708Z,4.82
2024-05-09T00:47:58.612Z,6.13
2024-05-09T00:50:33.410Z,5.72
2024-05-09T00:53:02.781Z,6.15
2024-05-09T00:55:29.408Z,5.22
2024-05-09T00:57:56.127Z,9.48
2024-05-09T01:00:31.386Z,9.32
2024-05-09T01:03:05.054Z,4.35
2024-05-09T01:05:32.056Z,6.35
2024-05-09T01:07:58.843Z,7.38
2024-05-09T01:10:33.428Z,7.20
2024-05-09T01:13:01.895Z,9.40
2024-05-09T01:15:28.569Z,3.42
2024-05-09T01:17:55.750Z,5.60
2024-05-09T01:20:31.876Z,4.63
2024-05-09T01:23:06.904Z,5.40
2024-05-09T01:25:33.695Z,6.90
2024-05-09T01:28:00.335Z,4.05
2024-05-09T01:30:33.838Z,11.15
2024-05-09T01:33:03.199Z,6.97
2024-05-09T01:35:30.209Z,5.65
2024-05-09T01:37:57.012Z,3.53
2024-05-09T01:40:33.323Z,3.85
2024-05-09T01:43:04.521Z,6.88
2024-05-09T01:45:31.382Z,4.38
2024-05-09T01:47:58.383Z,5.85
2024-05-09T01:50:36.726Z,7.28
2024-05-09T01:53:07.281Z,6.45
2024-05-09T01:55:34.020Z,4.10
2024-05-09T01:58:00.708Z,19.02
2024-05-09T02:00:36.378Z,7.32
2024-05-09T02:03:06.876Z,11.38
2024-05-09T02:05:33.776Z,7.22
2024-05-09T02:08:00.477Z,6.65
2024-05-09T02:10:32.353Z,10.77
2024-05-09T02:13:00.051Z,5.20
2024-05-09T02:15:26.789Z,3.63
2024-05-09T02:17:53.757Z,3.08
2024-05-09T02:20:30.134Z,7.88
2024-05-09T02:23:02.382Z,5.00
2024-05-09T02:25:29.132Z,5.05
2024-05-09T02:27:55.882Z,5.78
2024-05-09T02:30:30.125Z,8.10
2024-05-09T02:33:04.966Z,3.80
2024-05-09T02:35:31.875Z,3.97
2024-05-09T02:37:58.657Z,5.82
2024-05-09T02:40:33.537Z,6.57
2024-05-09T02:43:04.054Z,2.90
2024-05-09T02:45:30.827Z,2.60
2024-05-09T02:47:57.663Z,4.10
2024-05-09T02:50:33.130Z,6.85
2024-05-09T02:53:04.414Z,2.08
2024-05-09T02:55:31.378Z,4.75
2024-05-09T02:57:58.094Z,6.63
2024-05-09T03:00:34.195Z,4.65
2024-05-09T03:03:05.818Z,4.05
2024-05-09T03:05:32.774Z,4.80
2024-05-09T03:07:59.609Z,3.95
2024-05-09T03:10:28.968Z,5.32
2024-05-09T03:13:01.136Z,3.78
2024-05-09T03:15:27.751Z,3.15
2024-05-09T03:17:54.583Z,8.10
2024-05-09T03:20:27.313Z,4.03
2024-05-09T03:22:57.586Z,3.75
2024-05-09T03:25:24.326Z,7.15
2024-05-09T03:27:51.063Z,3.60
2024-05-09T03:30:29.229Z,6.75
2024-05-09T03:33:03.230Z,8.50
2024-05-09T03:35:30.164Z,12.48
2024-05-09T03:37:56.894Z,4.47
2024-05-09T03:40:26.607Z,8.93
2024-05-09T03:42:55.849Z,5.20
2024-05-09T03:45:22.582Z,7.13
2024-05-09T03:47:49.600Z,2.80
2024-05-09T03:50:22.734Z,6.70
2024-05-09T03:52:56.446Z,5.32
2024-05-09T03:55:23.109Z,6.47
2024-05-09T03:57:49.746Z,7.80
2024-05-09T04:00:22.493Z,4.85
2024-05-09T04:02:57.344Z,8.98
2024-05-09T04:05:24.134Z,6.80
2024-05-09T04:07:50.800Z,11.25
2024-05-09T04:10:27.308Z,8.48
2024-05-09T04:12:57.647Z,4.45
2024-05-09T04:15:24.312Z,10.43
2024-05-09T04:17:51.274Z,4.80
2024-05-09T04:20:28.780Z,10.50
2024-05-09T04:23:03.154Z,6.82
2024-05-09T04:25:29.920Z,4.57
2024-05-09T04:27:56.591Z,7.80
2024-05-09T04:30:33.766Z,5.43
2024-05-09T04:33:05.110Z,11.40
2024-05-09T04:35:32.128Z,5.65
2024-05-09T04:37:59.013Z,2.85
2024-05-09T04:40:32.994Z,6.28
2024-05-09T04:43:02.431Z,10.68
2024-05-09T04:45:29.157Z,6.97
2024-05-09T04:47:55.987Z,6.88
2024-05-09T04:50:30.166Z,8.02
2024-05-09T04:53:03.154Z,5.03
2024-05-09T04:55:29.887Z,7.82
2024-05-09T04:57:56.516Z,7.53
2024-05-09T05:00:32.337Z,9.82
2024-05-09T05:03:03.458Z,8.88
2024-05-09T05:05:30.395Z,4.97
2024-05-09T05:07:57.144Z,5.05
2024-05-09T05:10:32.956Z,4.47
2024-05-09T05:13:02.276Z,10.88
2024-05-09T05:15:28.913Z,5.65
2024-05-09T05:17:55.758Z,9.00
2024-05-09T05:20:30.623Z,17.60
2024-05-09T05:23:00.143Z,15.13
2024-05-09T05:25:26.862Z,18.35
2024-05-09T05:27:53.578Z,9.50
2024-05-09T05:30:25.239Z,14.45
2024-05-09T05:32:56.106Z,7.82
2024-05-09T05:35:22.901Z,19.27
2024-05-09T05:37:49.636Z,26.40
2024-05-09T05:40:25.314Z,11.10
2024-05-09T05:42:59.466Z,14.27
2024-05-09T05:45:26.188Z,12.75
2024-05-09T05:47:53.179Z,19.60
2024-05-09T05:50:27.434Z,8.48
2024-05-09T05:52:59.756Z,13.32
2024-05-09T05:55:26.449Z,23.05
2024-05-09T05:57:53.127Z,9.07
2024-05-09T06:00:29.231Z,16.92
2024-05-09T06:03:02.179Z,7.32
2024-05-09T06:05:29.069Z,7.97
2024-05-09T06:07:55.936Z,9.63
2024-05-09T06:10:29.585Z,5.63
2024-05-09T06:13:01.649Z,10.57
2024-05-09T06:15:28.369Z,9.10
2024-05-09T06:17:55.292Z,10.77
2024-05-09T06:20:31.548Z,6.78
2024-05-09T06:23:02.474Z,9.32
2024-05-09T06:25:29.219Z,8.52
2024-05-09T06:27:55.957Z,6.10
2024-05-09T06:30:30.047Z,6.82
2024-05-09T06:33:03.959Z,4.10
2024-05-09T06:35:31.186Z,17.98
2024-05-09T06:37:58.104Z,6.78
2024-05-09T06:40:29.460Z,7.22
2024-05-09T06:43:02.204Z,4.35
2024-05-09T06:45:28.853Z,5.70
2024-05-09T06:47:55.836Z,5.10
2024-05-09T06:50:24.530Z,7.18
2024-05-09T06:52:54.774Z,8.18
2024-05-09T06:55:21.517Z,9.57
2024-05-09T06:57:48.244Z,6.72
2024-05-09T07:00:22.818Z,13.32
2024-05-09T07:02:57.638Z,9.45
2024-05-09T07:05:26.097Z,5.65
2024-05-09T07:07:52.972Z,5.97
2024-05-09T07:10:28.394Z,12.57
2024-05-09T07:12:59.331Z,5.13
2024-05-09T07:15:26.043Z,6.53
2024-05-09T07:17:52.839Z,4.00
2024-05-09T07:20:27.524Z,5.20
2024-05-09T07:23:00.756Z,4.82
2024-05-09T07:25:27.521Z,7.45
2024-05-09T07:27:54.220Z,4.28
2024-05-09T07:30:27.532Z,6.18
2024-05-09T07:33:00.200Z,7.32
2024-05-09T07:35:27.486Z,7.13
2024-05-09T07:37:54.582Z,6.00
2024-05-09T07:40:31.829Z,4.18
2024-05-09T07:43:02.361Z,4.55
2024-05-09T07:45:45.231Z,3.60
2024-05-09T07:49:45.382Z,6.32
2024-05-09T07:53:40.579Z,4.35
2024-05-09T07:56:12.142Z,10.00
2024-05-09T07:58:39.104Z,6.38
2024-05-09T08:01:06.067Z,4.20
2024-05-09T08:03:33.350Z,5.18
2024-05-09T08:06:00.145Z,6.30
2024-05-09T08:08:26.877Z,7.78
2024-05-09T08:10:53.693Z,5.10
2024-05-09T08:13:20.661Z,5.88
2024-05-09T08:15:47.423Z,6.00
2024-05-09T08:18:14.199Z,10.63
2024-05-09T08:20:40.927Z,4.00
2024-05-09T08:23:07.628Z,7.72
2024-05-09T08:25:34.482Z,4.80
2024-05-09T08:28:01.393Z,4.72
2024-05-09T08:30:33.796Z,5.30
2024-05-09T08:33:03.925Z,5.55
2024-05-09T08:35:30.655Z,5.22
2024-05-09T08:37:57.451Z,3.50
2024-05-09T08:40:30.962Z,3.20
2024-05-09T08:43:01.892Z,3.72
2024-05-09T08:45:28.698Z,3.20
2024-05-09T08:47:55.636Z,5.93
2024-05-09T08:50:29.242Z,4.10
2024-05-09T08:53:03.023Z,5.63
2024-05-09T08:55:29.763Z,2.75
2024-05-09T08:57:56.404Z,4.15
2024-05-09T09:00:33.443Z,5.07
2024-05-09T09:03:03.518Z,3.50
2024-05-09T09:05:30.257Z,9.05
2024-05-09T09:07:56.973Z,9.25
2024-05-09T09:10:29.818Z,10.52
2024-05-09T09:12:58.982Z,17.20
2024-05-09T09:15:25.651Z,12.57
2024-05-09T09:17:52.486Z,9.43
2024-05-09T09:20:26.228Z,16.27
2024-05-09T09:23:00.039Z,12.45
2024-05-09T09:25:26.813Z,17.35
2024-05-09T09:27:53.548Z,7.35
2024-05-09T09:30:31.775Z,11.10
2024-05-09T09:33:03.700Z,16.83
2024-05-09T09:35:30.409Z,13.75
2024-05-09T09:37:57.048Z,11.30
2024-05-09T09:40:31.037Z,10.00
2024-05-09T09:42:59.316Z,10.10
2024-05-09T09:45:25.953Z,8.00
2024-05-09T09:47:52.816Z,9.95
2024-05-09T09:50:27.358Z,8.52
2024-05-09T09:52:58.502Z,5.35
2024-05-09T09:55:25.278Z,9.63
2024-05-09T09:57:51.980Z,4.80
2024-05-09T10:00:24.495Z,6.78
2024-05-09T10:02:57.233Z,6.75
2024-05-09T10:05:24.280Z,10.65
2024-05-09T10:07:51.220Z,5.05
2024-05-09T10:10:23.147Z,10.13
2024-05-09T10:12:56.793Z,7.38
2024-05-09T10:15:23.469Z,9.82
2024-05-09T10:17:50.155Z,8.45
2024-05-09T10:20:21.930Z,10.02
2024-05-09T10:22:52.135Z,7.95
2024-05-09T10:25:18.952Z,11.00
2024-05-09T10:27:45.787Z,7.72
2024-05-09T10:30:17.869Z,8.13
2024-05-09T10:32:51.965Z,7.05
2024-05-09T10:35:18.680Z,4.50
2024-05-09T10:37:45.358Z,5.20
2024-05-09T10:40:19.844Z,6.03
2024-05-09T10:42:50.213Z,6.30
2024-05-09T10:45:16.916Z,5.47
2024-05-09T10:47:43.990Z,4.90
2024-05-09T10:50:18.523Z,8.05
2024-05-09T10:52:52.171Z,21.38
2024-05-09T10:55:19.070Z,15.20
2024-05-09T10:57:45.853Z,6.78
2024-05-09T11:00:19.032Z,7.15
2024-05-09T11:02:50.253Z,9.00
2024-05-09T11:05:17.141Z,10.40
2024-05-09T11:07:43.945Z,7.22
2024-05-09T11:10:14.511Z,4.68
2024-05-09T11:12:41.420Z,5.20
2024-05-09T11:15:08.208Z,4.30
2024-05-09T11:17:34.958Z,3.28
2024-05-09T11:20:01.721Z,4.85
2024-05-09T11:22:28.609Z,3.45
2024-05-09T11:24:55.395Z,6.38
2024-05-09T11:27:22.071Z,4.03
2024-05-09T11:29:48.770Z,5.25
2024-05-09T11:32:15.396Z,5.60
2024-05-09T11:34:42.275Z,5.82
2024-05-09T11:37:09.012Z,4.10
2024-05-09T11:39:35.832Z,9.02
2024-05-09T11:42:02.562Z,7.63
2024-05-09T11:44:29.473Z,4.22
2024-05-09T11:46:56.194Z,3.83
2024-05-09T11:49:25.453Z,6.05
2024-05-09T11:51:53.607Z,3.67
2024-05-09T11:54:20.323Z,2.70
2024-05-09T11:56:47.057Z,4.00
2024-05-09T11:59:13.748Z,3.83
2024-05-09T12:01:40.592Z,3.03
2024-05-09T12:04:07.482Z,1.70
2024-05-09T12:06:34.261Z,2.97
2024-05-09T12:09:00.946Z,20.75
2024-05-09T12:11:27.602Z,5.03
2024-05-09T12:13:54.357Z,3.70
2024-05-09T12:16:21.214Z,2.50
2024-05-09T12:18:48.145Z,4.50
2024-05-09T12:21:14.899Z,12.57
2024-05-09T12:23:41.570Z,8.55
2024-05-09T12:26:08.206Z,6.93
2024-05-09T12:28:34.912Z,6.88
2024-05-09T12:31:01.619Z,4.32
2024-05-09T12:33:28.623Z,4.18
2024-05-09T12:35:55.358Z,6.90
2024-05-09T12:38:22.010Z,2.88
2024-05-09T12:40:48.687Z,6.30
2024-05-09T12:43:15.701Z,4.15
2024-05-09T12:45:42.508Z,6.30
2024-05-09T12:48:09.319Z,4.28
2024-05-09T12:50:36.578Z,18.67
2024-05-09T12:53:04.455Z,7.50
2024-05-09T12:55:37.139Z,10.50
2024-05-09T12:58:11.211Z,9.80
2024-05-09T13:00:38.219Z,8.40
2024-05-09T13:03:05.086Z,8.90
2024-05-09T13:05:32.053Z,8.15
2024-05-09T13:07:58.950Z,12.13
2024-05-09T13:10:31.637Z,28.48
2024-05-09T13:13:00.364Z,7.90
2024-05-09T13:15:27.433Z,7.55
2024-05-09T13:17:55.802Z,11.85
2024-05-09T13:20:31.168Z,7.93
2024-05-09T13:23:00.002Z,6.90
2024-05-09T13:25:26.689Z,15.32
2024-05-09T13:27:53.353Z,7.78
2024-05-09T13:30:28.809Z,6.72
2024-05-09T13:33:02.302Z,17.55
2024-05-09T13:35:29.042Z,19.17
2024-05-09T13:37:55.687Z,11.77
2024-05-09T13:40:31.732Z,7.38
2024-05-09T13:43:00.972Z,6.30
2024-05-09T13:45:27.628Z,7.97
2024-05-09T13:47:54.401Z,5.10
2024-05-09T13:50:30.548Z,5.05
2024-05-09T13:53:00.741Z,14.80
2024-05-09T13:55:27.367Z,9.52
2024-05-09T13:57:54.199Z,4.10
2024-05-09T14:02:50.621Z,8.48
2024-05-09T14:05:17.526Z,4.47
2024-05-09T14:07:44.290Z,7.60
2024-05-09T14:10:19.816Z,6.90
2024-05-09T14:12:52.591Z,5.07
2024-05-09T14:15:19.257Z,10.02
2024-05-09T14:17:46.060Z,7.38
2024-05-09T14:20:16.640Z,5.05
2024-05-09T14:22:49.888Z,3.22
2024-05-09T14:25:16.845Z,7.20
2024-05-09T14:27:43.709Z,3.17
2024-05-09T14:30:18.117Z,4.82
2024-05-09T14:32:52.172Z,4.32
2024-05-09T14:35:19.154Z,8.70
2024-05-09T14:37:45.861Z,6.38
2024-05-09T14:40:25.891Z,6.22
2024-05-09T14:43:01.117Z,17.27
2024-05-09T14:45:29.079Z,7.50
2024-05-09T14:47:55.853Z,6.50
2024-05-09T14:50:28.115Z,15.75
2024-05-09T14:53:01.593Z,9.13
2024-05-09T14:55:28.248Z,31.50
2024-05-09T14:57:55.987Z,5.65
2024-05-09T15:00:28.790Z,3.88
2024-05-09T15:03:00.078Z,8.13
2024-05-09T15:05:26.918Z,6.78
2024-05-09T15:07:53.536Z,8.95
2024-05-09T15:10:27.056Z,9.48
2024-05-09T15:13:00.745Z,8.48
2024-05-09T15:15:27.550Z,13.05
2024-05-09T15:17:54.431Z,22.20
2024-05-09T15:20:28.004Z,61.40
2024-05-09T15:23:01.163Z,77.35
2024-05-09T15:25:28.008Z,93.25
2024-05-09T15:27:54.855Z,84.25
2024-05-09T15:30:29.905Z,79.57
2024-05-09T15:32:59.203Z,85.07
2024-05-09T15:35:25.899Z,69.25
2024-05-09T15:37:52.578Z,74.35
2024-05-09T15:40:26.823Z,78.22
2024-05-09T15:43:02.559Z,69.05
2024-05-09T15:45:29.595Z,68.43
2024-05-09T15:47:56.743Z,61.45
2024-05-09T15:50:32.538Z,51.35
2024-05-09T15:53:04.580Z,52.17
2024-05-09T15:55:31.218Z,54.47
2024-05-09T15:57:57.972Z,49.00
2024-05-09T16:00:33.853Z,52.00
2024-05-09T16:03:05.002Z,50.60
2024-05-09T16:05:31.931Z,56.65
2024-05-09T16:07:58.619Z,43.78
2024-05-09T16:10:30.104Z,51.90
2024-05-09T16:12:59.527Z,44.13
2024-05-09T16:15:26.206Z,48.03
2024-05-09T16:17:53.044Z,44.92
2024-05-09T16:20:33.139Z,44.92
2024-05-09T16:23:05.071Z,46.35
2024-05-09T16:25:31.813Z,44.80
2024-05-09T16:27:58.642Z,51.00
2024-05-09T16:30:32.005Z,43.17
2024-05-09T16:33:02.137Z,44.60
2024-05-09T16:35:28.968Z,36.13
2024-05-09T16:37:55.662Z,40.88
2024-05-09T16:40:30.197Z,36.75
2024-05-09T16:43:04.292Z,36.60
2024-05-09T16:45:31.482Z,46.50
2024-05-09T16:47:58.391Z,35.67
2024-05-09T16:50:29.602Z,39.70
2024-05-09T16:52:59.705Z,34.08
2024-05-09T16:55:26.500Z,33.85
2024-05-09T16:57:53.302Z,32.88
2024-05-09T17:00:31.018Z,35.60
2024-05-09T17:03:06.426Z,33.90
2024-05-09T17:05:33.755Z,34.65
2024-05-09T17:08:00.692Z,35.33
2024-05-09T17:10:32.581Z,35.97
2024-05-09T17:13:01.591Z,30.65
2024-05-09T17:15:28.405Z,33.20
2024-05-09T17:17:55.149Z,28.30
2024-05-09T17:20:29.539Z,28.52
2024-05-09T17:23:00.580Z,28.67
2024-05-09T17:25:27.325Z,31.90
2024-05-09T17:27:54.183Z,36.47
2024-05-09T17:30:28.827Z,37.60
2024-05-09T17:33:01.585Z,38.30
2024-05-09T17:35:28.515Z,32.75
2024-05-09T17:37:55.218Z,31.60
2024-05-09T17:40:30.752Z,32.13
2024-05-09T17:43:01.613Z,41.63
2024-05-09T17:45:28.551Z,29.92
2024-05-09T17:47:55.574Z,33.42
2024-05-09T17:50:30.221Z,34.13
2024-05-09T17:53:01.427Z,31.52
2024-05-09T17:55:28.385Z,32.42
2024-05-09T17:57:55.236Z,41.85
2024-05-09T18:00:32.463Z,35.67
2024-05-09T18:03:04.769Z,42.55
2024-05-09T18:05:31.701Z,46.35
2024-05-09T18:07:58.729Z,44.33
2024-05-09T18:10:30.067Z,38.35
2024-05-09T18:13:02.701Z,45.40
2024-05-09T18:15:29.357Z,44.80
2024-05-09T18:17:56.153Z,47.03
2024-05-09T18:20:32.761Z,33.70
2024-05-09T18:23:07.802Z,42.78
2024-05-09T18:25:34.533Z,37.72
2024-05-09T18:28:01.208Z,39.53
2024-05-09T18:30:33.606Z,34.88
2024-05-09T18:33:02.618Z,43.38
2024-05-09T18:35:29.633Z,38.92
2024-05-09T18:37:56.269Z,53.45
2024-05-09T18:40:31.295Z,36.53
2024-05-09T18:43:02.100Z,45.65
2024-05-09T18:45:28.824Z,36.80
2024-05-09T18:47:55.591Z,37.85
2024-05-09T18:50:31.844Z,41.17
2024-05-09T18:53:02.717Z,38.67
2024-05-09T18:55:29.453Z,41.63
2024-05-09T18:57:56.246Z,33.13
2024-05-09T19:00:31.553Z,42.17
2024-05-09T19:03:02.944Z,42.58
2024-05-09T19:05:30.038Z,42.53
2024-05-09T19:07:56.873Z,34.85
2024-05-09T19:10:28.651Z,38.05
2024-05-09T19:12:58.974Z,45.75
2024-05-09T19:15:25.694Z,40.00
2024-05-09T19:17:52.435Z,50.75
2024-05-09T19:20:25.462Z,48.22
2024-05-09T19:22:58.519Z,39.90
2024-05-09T19:25:25.207Z,55.88
2024-05-09T19:27:51.882Z,38.78
2024-05-09T19:30:25.694Z,58.22
2024-05-09T19:33:01.328Z,34.22
2024-05-09T19:35:28.135Z,44.92
2024-05-09T19:37:54.841Z,42.20
2024-05-09T19:40:28.889Z,55.83
2024-05-09T19:42:58.689Z,44.10
2024-05-09T19:45:25.519Z,55.13
2024-05-09T19:47:52.450Z,46.45
2024-05-09T19:50:26.755Z,42.50
2024-05-09T19:52:59.715Z,45.15
2024-05-09T19:55:26.369Z,50.40
2024-05-09T19:57:53.029Z,38.30
2024-05-09T20:00:26.160Z,44.65
2024-05-09T20:02:56.435Z,41.90
2024-05-09T20:05:23.643Z,37.33
2024-05-09T20:07:50.336Z,38.20
2024-05-09T20:10:23.690Z,37.33
2024-05-09T20:12:53.381Z,32.20
2024-05-09T20:15:20.063Z,32.40
2024-05-09T20:17:46.873Z,28.23
2024-05-09T20:20:23.579Z,32.72
2024-05-09T20:22:58.557Z,45.05
2024-05-09T20:25:25.246Z,40.95
2024-05-09T20:27:51.895Z,27.88
2024-05-09T20:30:25.461Z,28.95
2024-05-09T20:32:58.430Z,27.85
2024-05-09T20:35:25.188Z,26.50
2024-05-09T20:37:51.856Z,43.60
2024-05-09T20:40:25.619Z,35.58
2024-05-09T20:42:58.273Z,29.33
2024-05-09T20:45:25.038Z,29.48
2024-05-09T20:47:51.876Z,31.30
2024-05-09T20:50:27.973Z,38.97
2024-05-09T20:55:29.479Z,34.72
2024-05-09T20:57:56.227Z,29.42
2024-05-09T21:00:30.014Z,35.15
2024-05-09T21:03:04.733Z,35.05
2024-05-09T21:05:31.734Z,29.42
2024-05-09T21:07:58.640Z,30.90
2024-05-09T21:10:27.140Z,30.85
2024-05-09T21:12:56.470Z,37.00
2024-05-09T21:15:23.213Z,35.55
2024-05-09T21:17:49.925Z,33.22
2024-05-09T21:20:20.641Z,29.17
2024-05-09T21:22:51.073Z,29.10
2024-05-09T21:25:17.885Z,32.67
2024-05-09T21:27:44.722Z,34.80
2024-05-09T21:30:18.656Z,30.60
2024-05-09T21:32:54.233Z,36.20
2024-05-09T21:35:20.999Z,27.85
2024-05-09T21:37:47.709Z,27.35
2024-05-09T21:40:24.198Z,24.63
2024-05-09T21:42:58.020Z,27.42
2024-05-09T21:45:24.793Z,24.95
2024-05-09T21:47:51.639Z,23.35
2024-05-09T21:50:22.964Z,26.10
2024-05-09T21:52:54.994Z,14.75
2024-05-09T21:55:21.672Z,22.20
2024-05-09T21:57:48.474Z,18.70
2024-05-09T22:00:28.042Z,17.80
2024-05-09T22:03:01.712Z,18.98
2024-05-09T22:05:28.587Z,20.95
2024-05-09T22:07:55.400Z,16.02
2024-05-09T22:10:26.508Z,16.17
2024-05-09T22:12:59.088Z,15.98
2024-05-09T22:15:25.911Z,18.75
2024-05-09T22:17:52.700Z,15.73
2024-05-09T22:20:28.696Z,14.95
2024-05-09T22:23:02.285Z,19.08
2024-05-09T22:25:30.936Z,17.33
2024-05-09T22:27:58.414Z,14.10
2024-05-09T22:30:33.827Z,17.25
2024-05-09T22:33:04.616Z,17.02
2024-05-09T22:35:31.417Z,13.63
2024-05-09T22:37:58.039Z,14.05
2024-05-09T22:40:37.432Z,16.17
2024-05-09T22:43:11.515Z,10.50
2024-05-09T22:45:38.221Z,11.43
2024-05-09T22:48:04.923Z,15.23
2024-05-09T22:50:33.420Z,12.35
2024-05-09T22:53:00.438Z,16.23
2024-05-09T22:55:27.121Z,16.08
2024-05-09T22:57:53.833Z,16.58
2024-05-09T23:00:29.184Z,19.92
2024-05-09T23:02:58.613Z,16.10
2024-05-09T23:05:25.388Z,19.05
2024-05-09T23:07:52.121Z,16.92
2024-05-09T23:10:27.315Z,16.30
2024-05-09T23:12:58.936Z,11.60
2024-05-09T23:15:25.708Z,13.90
2024-05-09T23:17:52.544Z,13.95
2024-05-09T23:20:29.805Z,16.42
2024-05-09T23:23:03.428Z,17.08
2024-05-09T23:25:30.247Z,14.20
2024-05-09T23:27:57.040Z,10.73
2024-05-09T23:30:33.287Z,15.32
2024-05-09T23:33:04.612Z,17.55
2024-05-09T23:35:31.522Z,15.52
2024-05-09T23:37:58.206Z,17.95
2024-05-09T23:40:36.351Z,14.43
2024-05-09T23:43:06.312Z,15.75
2024-05-09T23:45:33.269Z,15.10
2024-05-09T23:48:00.282Z,10.98
2024-05-09T23:50:34.187Z,9.70
2024-05-09T23:53:03.928Z,13.38
2024-05-09T23:55:30.677Z,14.70
2024-05-09T23:57:57.426Z,15.55
